Black Star — 9HA2911 — position and weather

sailwx.info

Track history (hours):
 
Tides and Currents Weather Stations Pressure Air Temp Water Temp Dewpoint Dewpoint Depression Visibility Wind Speed Wind Dir Waves Ship Positions

Black Star

Last reported at 2014-Oct-02 15:33 UTC. Time now 2014-Oct-02 16:34 UTC.
Position N 54°20' E 000°28'.

Length 128 m; draft 7.7 m.

Type: Ship (hazmat cat B). MMSI: 256714000.

Date/timePositionNaut miles runAvg speedWind from/ knotsBaromVisibWave heightAir tempDewpointWater temp
2014-Oct-02 15:33N 54°20' E 000°28'1211.6
2014-Oct-02 14:33N 54°24' E 000°09'1211.7
2014-Oct-02 13:33N 54°29' W 000°10'1211.9
2014-Oct-02 12:33N 54°33' W 000°28'1312.4
2014-Oct-02 11:32N 54°38' W 000°49'1111.5
2014-Oct-02 10:33N 54°39' W 001°08'3 0.6
2014-Oct-02 06:07N 54°37' W 001°10'0 0.0
2014-Oct-01 15:25N 54°37' W 001°10'0 0.0
2014-Oct-01 14:25N 54°37' W 001°10'0 0.0
2014-Oct-01 13:20N 54°37' W 001°10'0 0.0
2014-Oct-01 10:22N 54°37' W 001°10'0 0.0
2014-Oct-01 08:26N 54°37' W 001°10'0 0.0
2014-Oct-01 07:29N 54°37' W 001°10'0 0.0
2014-Oct-01 06:29N 54°37' W 001°10'4 0.7
2014-Oct-01 00:32N 54°40' W 001°07'2 2.5
2014-Sep-30 23:33N 54°41' W 001°03'2 1.4
2014-Sep-30 22:28N 54°42' W 001°01'0 0.0
2014-Sep-30 20:19N 54°42' W 001°01'0 0.0
2014-Sep-30 19:31N 54°42' W 001°01'0 0.0
2014-Sep-30 18:19N 54°42' W 001°01'0 0.0
2014-Sep-30 13:31N 54°42' W 001°01'0 0.0
2014-Sep-30 12:31N 54°42' W 001°01'0 0.0
2014-Sep-30 11:31N 54°42' W 001°01'0 0.1
2014-Sep-30 10:07N 54°42' W 001°01'0 0.1
2014-Sep-30 09:31N 54°42' W 001°01'10 8.9
2014-Sep-30 08:22N 54°38' W 000°44'911.4
2014-Sep-30 07:34N 54°34' W 000°30'1111.3
2014-Sep-30 06:33N 54°27' W 000°14'1211.6
2014-Sep-30 05:34N 54°21' E 000°02'1212.1
2014-Sep-30 04:33N 54°14' E 000°19'1313.0
2014-Sep-30 03:34N 54°07' E 000°38'16810.5
2014-Sep-29 11:33N 52°04' E 003°48'1211.9
2014-Sep-29 10:33N 51°59' E 004°06'9 9.2
2014-Sep-29 09:33N 51°53' E 004°17'0 0.2
2014-Sep-29 08:29N 51°53' E 004°17'0 0.0
2014-Sep-29 07:32N 51°53' E 004°17'0 0.0
2014-Sep-29 06:33N 51°53' E 004°17'0 0.0
2014-Sep-29 05:33N 51°53' E 004°17'0 0.0
2014-Sep-29 04:33N 51°53' E 004°17'0 0.0
2014-Sep-29 03:33N 51°53' E 004°17'0 0.0
2014-Sep-29 02:33N 51°53' E 004°17'0 0.0
2014-Sep-29 01:33N 51°53' E 004°17'0 0.0
2014-Sep-29 00:33N 51°53' E 004°17'0 0.0
2014-Sep-28 23:34N 51°53' E 004°17'0 0.0
2014-Sep-28 22:33N 51°53' E 004°17'0 0.0
2014-Sep-28 21:33N 51°53' E 004°17'0 0.0
2014-Sep-28 20:33N 51°53' E 004°17'0 0.0
2014-Sep-28 19:33N 51°53' E 004°17'0 0.0
2014-Sep-28 18:33N 51°53' E 004°17'0 0.0
2014-Sep-28 17:33N 51°53' E 004°17'0 0.0
2014-Sep-28 16:34N 51°53' E 004°17'0 0.0
2014-Sep-28 15:33N 51°53' E 004°17'0 0.0
2014-Sep-28 14:33N 51°53' E 004°17'0 0.0
2014-Sep-28 13:33N 51°53' E 004°17'105105.1
2014-Sep-28 12:33N 50°09' E 004°17'105104.8
2014-Sep-28 11:33N 51°53' E 004°17'0 0.0
2014-Sep-28 10:33N 51°53' E 004°17'0 0.0
2014-Sep-28 09:33N 51°53' E 004°17'0 0.0
2014-Sep-28 08:33N 51°53' E 004°17'0 0.0
2014-Sep-28 07:33N 51°53' E 004°17'0 0.0
2014-Sep-28 06:33N 51°53' E 004°17'0 0.0
2014-Sep-28 05:34N 51°53' E 004°17'0 0.0
2014-Sep-28 04:34N 51°53' E 004°17'0 0.0
2014-Sep-28 03:33N 51°53' E 004°17'0 0.0
2014-Sep-28 02:33N 51°53' E 004°17'0 0.0
2014-Sep-28 01:33N 51°53' E 004°17'1 1.0
2014-Sep-28 00:33N 51°53' E 004°19'0 0.0
2014-Sep-27 23:33N 51°53' E 004°19'0 0.0
2014-Sep-27 22:21N 51°53' E 004°19'0 0.0
2014-Sep-27 21:27N 51°53' E 004°19'0 0.0
2014-Sep-27 20:27N 51°53' E 004°19'0 0.0
2014-Sep-27 19:27N 51°53' E 004°19'0 0.0
2014-Sep-27 18:15N 51°53' E 004°19'0 0.0
2014-Sep-27 17:33N 51°53' E 004°19'0 0.0
2014-Sep-27 16:33N 51°53' E 004°19'0 0.0
2014-Sep-27 15:27N 51°53' E 004°19'0 0.0
2014-Sep-27 14:27N 51°53' E 004°19'0 0.0
2014-Sep-27 13:33N 51°53' E 004°19'0 0.0
2014-Sep-27 12:27N 51°53' E 004°19'0 0.0
2014-Sep-27 11:33N 51°53' E 004°19'0 0.0
2014-Sep-27 10:33N 51°53' E 004°19'0 0.0
2014-Sep-27 09:33N 51°53' E 004°19'0 0.0
2014-Sep-27 08:33N 51°53' E 004°19'0 0.0
2014-Sep-27 07:21N 51°53' E 004°19'0 0.0
2014-Sep-27 06:33N 51°53' E 004°19'0 0.0
2014-Sep-27 05:27N 51°53' E 004°19'0 0.0
2014-Sep-27 04:33N 51°53' E 004°19'0 0.0
2014-Sep-27 03:33N 51°53' E 004°19'1 0.7
2014-Sep-27 01:33N 51°53' E 004°17'0 0.0
2014-Sep-27 00:31N 51°53' E 004°17'0 0.0
2014-Sep-26 23:31N 51°53' E 004°17'0 0.0
2014-Sep-26 22:29N 51°53' E 004°17'0 0.0
2014-Sep-26 21:31N 51°53' E 004°17'0 0.0
2014-Sep-26 20:31N 51°53' E 004°17'0 0.0
2014-Sep-26 19:25N 51°53' E 004°17'0 0.0
2014-Sep-26 17:31N 51°53' E 004°17'0 0.0
2014-Sep-26 16:25N 51°53' E 004°17'0 0.0
2014-Sep-26 15:28N 51°53' E 004°17'0 0.0
2014-Sep-26 14:28N 51°53' E 004°17'0 0.0
2014-Sep-26 13:31N 51°53' E 004°17'0 0.0
2014-Sep-26 12:31N 51°53' E 004°17'0 0.0
2014-Sep-26 09:19N 51°53' E 004°17'0 0.0
2014-Sep-26 07:25N 51°53' E 004°17'0 0.0
2014-Sep-26 06:25N 51°53' E 004°17'0 0.0
2014-Sep-26 05:07N 51°53' E 004°17'0 0.0
2014-Sep-26 04:31N 51°53' E 004°17'0 0.0
2014-Sep-26 03:19N 51°53' E 004°17'0 0.0
2014-Sep-26 02:31N 51°53' E 004°17'0 0.0
2014-Sep-26 01:07N 51°53' E 004°17'0 0.0
2014-Sep-25 23:13N 51°53' E 004°17'0 0.0
2014-Sep-25 22:19N 51°53' E 004°17'0 0.0
2014-Sep-25 21:13N 51°53' E 004°17'0 0.0
2014-Sep-25 20:31N 51°53' E 004°17'0 0.0
2014-Sep-25 19:31N 51°53' E 004°17'0 0.0
2014-Sep-25 17:31N 51°53' E 004°17'0 0.0
2014-Sep-25 16:19N 51°53' E 004°17'0 0.0
2014-Sep-25 15:31N 51°53' E 004°17'0 0.0
2014-Sep-25 14:19N 51°53' E 004°17'0 0.0
2014-Sep-25 13:19N 51°53' E 004°17'0 0.0
2014-Sep-25 11:13N 51°53' E 004°17'0 0.0
2014-Sep-25 10:25N 51°53' E 004°17'0 0.0
2014-Sep-25 09:25N 51°53' E 004°17'0 0.0
2014-Sep-25 08:19N 51°53' E 004°17'0 0.0
2014-Sep-25 07:13N 51°53' E 004°17'0 0.2
2014-Sep-25 06:26N 51°53' E 004°17'0 0.4
2014-Sep-25 05:28N 51°53' E 004°17'0 0.0
2014-Sep-25 04:31N 51°53' E 004°17'0 0.0
2014-Sep-25 03:28N 51°53' E 004°17'0 0.0
2014-Sep-25 02:25N 51°53' E 004°17'0 0.0
2014-Sep-25 01:31N 51°53' E 004°17'0 0.0
2014-Sep-25 00:31N 51°53' E 004°17'0 0.0
2014-Sep-24 23:31N 51°53' E 004°17'0 0.0
2014-Sep-24 22:31N 51°53' E 004°17'0 0.0
2014-Sep-24 21:31N 51°53' E 004°17'0 0.0
2014-Sep-24 20:31N 51°53' E 004°17'0 0.0
2014-Sep-24 19:31N 51°53' E 004°17'0 0.0
2014-Sep-24 18:28N 51°53' E 004°17'0 0.0
2014-Sep-24 17:31N 51°53' E 004°17'0 0.0
2014-Sep-24 16:28N 51°53' E 004°17'0 0.0
2014-Sep-24 15:28N 51°53' E 004°17'0 0.0
2014-Sep-24 14:31N 51°53' E 004°17'0 0.0
2014-Sep-24 13:31N 51°53' E 004°17'0 0.0
2014-Sep-24 12:31N 51°53' E 004°17'0 0.0
2014-Sep-24 11:31N 51°53' E 004°17'0 0.0
2014-Sep-24 10:31N 51°53' E 004°17'0 0.0
2014-Sep-24 09:33N 51°53' E 004°17'0 0.0
2014-Sep-24 08:33N 51°53' E 004°17'0 0.0
2014-Sep-24 07:33N 51°53' E 004°17'0 0.0
2014-Sep-24 06:33N 51°53' E 004°17'0 0.0
2014-Sep-24 05:33N 51°53' E 004°17'0 0.0
2014-Sep-24 04:33N 51°53' E 004°17'0 0.0
2014-Sep-24 03:33N 51°53' E 004°17'0 0.4
2014-Sep-24 02:33N 51°53' E 004°18'1 0.6
2014-Sep-24 01:18N 51°53' E 004°19'0 0.0
2014-Sep-24 00:24N 51°53' E 004°19'0 0.0
2014-Sep-23 23:33N 51°53' E 004°19'0 0.0
2014-Sep-23 22:24N 51°53' E 004°19'0 0.0
2014-Sep-23 21:33N 51°53' E 004°19'0 0.0
2014-Sep-23 20:27N 51°53' E 004°19'0 0.0
2014-Sep-23 18:30N 51°53' E 004°19'0 0.0
2014-Sep-23 17:30N 51°53' E 004°19'0 0.0
2014-Sep-23 16:33N 51°53' E 004°19'0 0.0
2014-Sep-23 15:30N 51°53' E 004°19'7 6.6
2014-Sep-23 14:30N 51°46' E 004°19'7 5.7
2014-Sep-23 13:21N 51°53' E 004°19'0 0.0
2014-Sep-23 12:09N 51°53' E 004°19'0 0.0
2014-Sep-23 10:24N 51°53' E 004°19'0 0.0
2014-Sep-23 06:21N 51°53' E 004°19'0 0.0
2014-Sep-23 02:30N 51°53' E 004°19'0 0.0
2014-Sep-22 23:30N 51°53' E 004°19'0 0.0
2014-Sep-22 21:24N 51°53' E 004°19'0 0.0
2014-Sep-22 20:33N 51°53' E 004°19'0 0.0
2014-Sep-22 19:32N 51°53' E 004°19'0 0.0
2014-Sep-22 18:33N 51°53' E 004°19'0 0.1
2014-Sep-22 17:33N 51°53' E 004°19'7 6.7
2014-Sep-22 16:33N 51°57' E 004°10'  
Track history (hours):
 
Tides and Currents Weather Stations Pressure Air Temp Water Temp Dewpoint Dewpoint Depression Visibility Wind Speed Wind Dir Waves Ship Positions

Black Star

Last reported at 2014-Oct-02 15:33 UTC. Time now 2014-Oct-02 16:34 UTC.
Position N 54°20' E 000°28'.

Length 128 m; draft 7.7 m.

Type: Ship (hazmat cat B). MMSI: 256714000.

Date/timePositionNaut miles runAvg speedWind from/ knotsBaromVisibWave heightAir tempDewpointWater temp
2014-Oct-02 15:33N 54°20' E 000°28'1211.6
2014-Oct-02 14:33N 54°24' E 000°09'1211.7
2014-Oct-02 13:33N 54°29' W 000°10'1211.9
2014-Oct-02 12:33N 54°33' W 000°28'1312.4
2014-Oct-02 11:32N 54°38' W 000°49'1111.5
2014-Oct-02 10:33N 54°39' W 001°08'3 0.6
2014-Oct-02 06:07N 54°37' W 001°10'0 0.0
2014-Oct-01 15:25N 54°37' W 001°10'0 0.0
2014-Oct-01 14:25N 54°37' W 001°10'0 0.0
2014-Oct-01 13:20N 54°37' W 001°10'0 0.0
2014-Oct-01 10:22N 54°37' W 001°10'0 0.0
2014-Oct-01 08:26N 54°37' W 001°10'0 0.0
2014-Oct-01 07:29N 54°37' W 001°10'0 0.0
2014-Oct-01 06:29N 54°37' W 001°10'4 0.7
2014-Oct-01 00:32N 54°40' W 001°07'2 2.5
2014-Sep-30 23:33N 54°41' W 001°03'2 1.4
2014-Sep-30 22:28N 54°42' W 001°01'0 0.0
2014-Sep-30 20:19N 54°42' W 001°01'0 0.0
2014-Sep-30 19:31N 54°42' W 001°01'0 0.0
2014-Sep-30 18:19N 54°42' W 001°01'0 0.0
2014-Sep-30 13:31N 54°42' W 001°01'0 0.0
2014-Sep-30 12:31N 54°42' W 001°01'0 0.0
2014-Sep-30 11:31N 54°42' W 001°01'0 0.1
2014-Sep-30 10:07N 54°42' W 001°01'0 0.1
2014-Sep-30 09:31N 54°42' W 001°01'10 8.9
2014-Sep-30 08:22N 54°38' W 000°44'911.4
2014-Sep-30 07:34N 54°34' W 000°30'1111.3
2014-Sep-30 06:33N 54°27' W 000°14'1211.6
2014-Sep-30 05:34N 54°21' E 000°02'1212.1
2014-Sep-30 04:33N 54°14' E 000°19'1313.0
2014-Sep-30 03:34N 54°07' E 000°38'16810.5
2014-Sep-29 11:33N 52°04' E 003°48'1211.9
2014-Sep-29 10:33N 51°59' E 004°06'9 9.2
2014-Sep-29 09:33N 51°53' E 004°17'0 0.2
2014-Sep-29 08:29N 51°53' E 004°17'0 0.0
2014-Sep-29 07:32N 51°53' E 004°17'0 0.0
2014-Sep-29 06:33N 51°53' E 004°17'0 0.0
2014-Sep-29 05:33N 51°53' E 004°17'0 0.0
2014-Sep-29 04:33N 51°53' E 004°17'0 0.0
2014-Sep-29 03:33N 51°53' E 004°17'0 0.0
2014-Sep-29 02:33N 51°53' E 004°17'0 0.0
2014-Sep-29 01:33N 51°53' E 004°17'0 0.0
2014-Sep-29 00:33N 51°53' E 004°17'0 0.0
2014-Sep-28 23:34N 51°53' E 004°17'0 0.0
2014-Sep-28 22:33N 51°53' E 004°17'0 0.0
2014-Sep-28 21:33N 51°53' E 004°17'0 0.0
2014-Sep-28 20:33N 51°53' E 004°17'0 0.0
2014-Sep-28 19:33N 51°53' E 004°17'0 0.0
2014-Sep-28 18:33N 51°53' E 004°17'0 0.0
2014-Sep-28 17:33N 51°53' E 004°17'0 0.0
2014-Sep-28 16:34N 51°53' E 004°17'0 0.0
2014-Sep-28 15:33N 51°53' E 004°17'0 0.0
2014-Sep-28 14:33N 51°53' E 004°17'0 0.0
2014-Sep-28 13:33N 51°53' E 004°17'105105.1
2014-Sep-28 12:33N 50°09' E 004°17'105104.8
2014-Sep-28 11:33N 51°53' E 004°17'0 0.0
2014-Sep-28 10:33N 51°53' E 004°17'0 0.0
2014-Sep-28 09:33N 51°53' E 004°17'0 0.0
2014-Sep-28 08:33N 51°53' E 004°17'0 0.0
2014-Sep-28 07:33N 51°53' E 004°17'0 0.0
2014-Sep-28 06:33N 51°53' E 004°17'0 0.0
2014-Sep-28 05:34N 51°53' E 004°17'0 0.0
2014-Sep-28 04:34N 51°53' E 004°17'0 0.0
2014-Sep-28 03:33N 51°53' E 004°17'0 0.0
2014-Sep-28 02:33N 51°53' E 004°17'0 0.0
2014-Sep-28 01:33N 51°53' E 004°17'1 1.0
2014-Sep-28 00:33N 51°53' E 004°19'0 0.0
2014-Sep-27 23:33N 51°53' E 004°19'0 0.0
2014-Sep-27 22:21N 51°53' E 004°19'0 0.0
2014-Sep-27 21:27N 51°53' E 004°19'0 0.0
2014-Sep-27 20:27N 51°53' E 004°19'0 0.0
2014-Sep-27 19:27N 51°53' E 004°19'0 0.0
2014-Sep-27 18:15N 51°53' E 004°19'0 0.0
2014-Sep-27 17:33N 51°53' E 004°19'0 0.0
2014-Sep-27 16:33N 51°53' E 004°19'0 0.0
2014-Sep-27 15:27N 51°53' E 004°19'0 0.0
2014-Sep-27 14:27N 51°53' E 004°19'0 0.0
2014-Sep-27 13:33N 51°53' E 004°19'0 0.0
2014-Sep-27 12:27N 51°53' E 004°19'0 0.0
2014-Sep-27 11:33N 51°53' E 004°19'0 0.0
2014-Sep-27 10:33N 51°53' E 004°19'0 0.0
2014-Sep-27 09:33N 51°53' E 004°19'0 0.0
2014-Sep-27 08:33N 51°53' E 004°19'0 0.0
2014-Sep-27 07:21N 51°53' E 004°19'0 0.0
2014-Sep-27 06:33N 51°53' E 004°19'0 0.0
2014-Sep-27 05:27N 51°53' E 004°19'0 0.0
2014-Sep-27 04:33N 51°53' E 004°19'0 0.0
2014-Sep-27 03:33N 51°53' E 004°19'1 0.7
2014-Sep-27 01:33N 51°53' E 004°17'0 0.0
2014-Sep-27 00:31N 51°53' E 004°17'0 0.0
2014-Sep-26 23:31N 51°53' E 004°17'0 0.0
2014-Sep-26 22:29N 51°53' E 004°17'0 0.0
2014-Sep-26 21:31N 51°53' E 004°17'0 0.0
2014-Sep-26 20:31N 51°53' E 004°17'0 0.0
2014-Sep-26 19:25N 51°53' E 004°17'0 0.0
2014-Sep-26 17:31N 51°53' E 004°17'0 0.0
2014-Sep-26 16:25N 51°53' E 004°17'0 0.0
2014-Sep-26 15:28N 51°53' E 004°17'0 0.0
2014-Sep-26 14:28N 51°53' E 004°17'0 0.0
2014-Sep-26 13:31N 51°53' E 004°17'0 0.0
2014-Sep-26 12:31N 51°53' E 004°17'0 0.0
2014-Sep-26 09:19N 51°53' E 004°17'0 0.0
2014-Sep-26 07:25N 51°53' E 004°17'0 0.0
2014-Sep-26 06:25N 51°53' E 004°17'0 0.0
2014-Sep-26 05:07N 51°53' E 004°17'0 0.0
2014-Sep-26 04:31N 51°53' E 004°17'0 0.0
2014-Sep-26 03:19N 51°53' E 004°17'0 0.0
2014-Sep-26 02:31N 51°53' E 004°17'0 0.0
2014-Sep-26 01:07N 51°53' E 004°17'0 0.0
2014-Sep-25 23:13N 51°53' E 004°17'0 0.0
2014-Sep-25 22:19N 51°53' E 004°17'0 0.0
2014-Sep-25 21:13N 51°53' E 004°17'0 0.0
2014-Sep-25 20:31N 51°53' E 004°17'0 0.0
2014-Sep-25 19:31N 51°53' E 004°17'0 0.0
2014-Sep-25 17:31N 51°53' E 004°17'0 0.0
2014-Sep-25 16:19N 51°53' E 004°17'0 0.0
2014-Sep-25 15:31N 51°53' E 004°17'0 0.0
2014-Sep-25 14:19N 51°53' E 004°17'0 0.0
2014-Sep-25 13:19N 51°53' E 004°17'0 0.0
2014-Sep-25 11:13N 51°53' E 004°17'0 0.0
2014-Sep-25 10:25N 51°53' E 004°17'0 0.0
2014-Sep-25 09:25N 51°53' E 004°17'0 0.0
2014-Sep-25 08:19N 51°53' E 004°17'0 0.0
2014-Sep-25 07:13N 51°53' E 004°17'0 0.2
2014-Sep-25 06:26N 51°53' E 004°17'0 0.4
2014-Sep-25 05:28N 51°53' E 004°17'0 0.0
2014-Sep-25 04:31N 51°53' E 004°17'0 0.0
2014-Sep-25 03:28N 51°53' E 004°17'0 0.0
2014-Sep-25 02:25N 51°53' E 004°17'0 0.0
2014-Sep-25 01:31N 51°53' E 004°17'0 0.0
2014-Sep-25 00:31N 51°53' E 004°17'0 0.0
2014-Sep-24 23:31N 51°53' E 004°17'0 0.0
2014-Sep-24 22:31N 51°53' E 004°17'0 0.0
2014-Sep-24 21:31N 51°53' E 004°17'0 0.0
2014-Sep-24 20:31N 51°53' E 004°17'0 0.0
2014-Sep-24 19:31N 51°53' E 004°17'0 0.0
2014-Sep-24 18:28N 51°53' E 004°17'0 0.0
2014-Sep-24 17:31N 51°53' E 004°17'0 0.0
2014-Sep-24 16:28N 51°53' E 004°17'0 0.0
2014-Sep-24 15:28N 51°53' E 004°17'0 0.0
2014-Sep-24 14:31N 51°53' E 004°17'0 0.0
2014-Sep-24 13:31N 51°53' E 004°17'0 0.0
2014-Sep-24 12:31N 51°53' E 004°17'0 0.0
2014-Sep-24 11:31N 51°53' E 004°17'0 0.0
2014-Sep-24 10:31N 51°53' E 004°17'0 0.0
2014-Sep-24 09:33N 51°53' E 004°17'0 0.0
2014-Sep-24 08:33N 51°53' E 004°17'0 0.0
2014-Sep-24 07:33N 51°53' E 004°17'0 0.0
2014-Sep-24 06:33N 51°53' E 004°17'0 0.0
2014-Sep-24 05:33N 51°53' E 004°17'0 0.0
2014-Sep-24 04:33N 51°53' E 004°17'0 0.0
2014-Sep-24 03:33N 51°53' E 004°17'0 0.4
2014-Sep-24 02:33N 51°53' E 004°18'1 0.6
2014-Sep-24 01:18N 51°53' E 004°19'0 0.0
2014-Sep-24 00:24N 51°53' E 004°19'0 0.0
2014-Sep-23 23:33N 51°53' E 004°19'0 0.0
2014-Sep-23 22:24N 51°53' E 004°19'0 0.0
2014-Sep-23 21:33N 51°53' E 004°19'0 0.0
2014-Sep-23 20:27N 51°53' E 004°19'0 0.0
2014-Sep-23 18:30N 51°53' E 004°19'0 0.0
2014-Sep-23 17:30N 51°53' E 004°19'0 0.0
2014-Sep-23 16:33N 51°53' E 004°19'0 0.0
2014-Sep-23 15:30N 51°53' E 004°19'7 6.6
2014-Sep-23 14:30N 51°46' E 004°19'7 5.7
2014-Sep-23 13:21N 51°53' E 004°19'0 0.0
2014-Sep-23 12:09N 51°53' E 004°19'0 0.0
2014-Sep-23 10:24N 51°53' E 004°19'0 0.0
2014-Sep-23 06:21N 51°53' E 004°19'0 0.0
2014-Sep-23 02:30N 51°53' E 004°19'0 0.0
2014-Sep-22 23:30N 51°53' E 004°19'0 0.0
2014-Sep-22 21:24N 51°53' E 004°19'0 0.0
2014-Sep-22 20:33N 51°53' E 004°19'0 0.0
2014-Sep-22 19:32N 51°53' E 004°19'0 0.0
2014-Sep-22 18:33N 51°53' E 004°19'0 0.1
2014-Sep-22 17:33N 51°53' E 004°19'7 6.7
2014-Sep-22 16:33N 51°57' E 004°10'  

Dump ship's entire track history